Hauptseite
METAR-TAF:

METAR-TAF

Flughäfen :

Flughafen Kassel-Calden

Kassel, Deutschland

Breite: 51-24N, Länge: 009-23E, Höhe: 277 m

Beobachtung

Neuester Wetterbericht von vor 14 Minuten, um 06:50 UTC
Wind 7 kt aus West
Temperatur 13°C
Luftfeuchtigkeit 72%
Luftdruck 1020 hPa
Sichtweite 10 km oder mehr
Aufgelockert bewölkt in der Höhe von 3000 ft
Durchbrochene Bewölkung in der Höhe von 3800 ft

METAR: EDVK 140650Z 28007KT 9999 SCT030 BKN038 13/08 Q1020

Zeit: 09:04 (07:04 UTC)

Prognose

Neuester Wetterbericht von vor 2 Stunden und 4 Minuten, um 05:00 UTC
Gültige Prognose vom 14 um 06 UTC bis 14 um 15 UTC
Wind 10 kt aus West/Nordwest
Sichtweite 10 km oder mehr
Durchbrochene Bewölkung in der Höhe von 3500 ft

TAF: EDVK 140500Z 1406/1415 29010KT 9999 BKN035

Wetterbeobachtungen und Prognosen von mehr als 4000 Flughäfen (METAR und TAF Bericht).

Die verfügbaren Stationen werden durch gelbe und rote Markierungen auf der Karte dargestellt.

Führen Sie die Maus auf sie, um den Namen der Station zu sehen.

Darauf klicken, um die Beobachtung von Wetterbeobachtungen und Prognosen zu sehen.

Um die Karte zu ändern : klicken Sie auf den grünen Tasten mit einem schwarzen Kreuz Zum Vergrößern, auf den grünen Button mit einem Gedankenstrich zu verkleinern, oder auf die grünen Pfeile für benachbarte Karten.


METAR-TAF: